Time;durP1;ratioP1;P1;durP2;ratioP2;P2;SDS_P1;SDS_P2;PMS_P1;PMS_P2;Temp;Humidity;BMP_temperature;BMP_pressure;BME280_temperature;BME280_humidity;BME280_pressure;Samples;Min_cycle;Max_cycle;Signal;HPM_P1;HPM_P2
2022/01/12 00:03:48;;;;;;;;;;;;;;;20.83;32.89;97181.41;10434537;28;1850;-69
2022/01/12 00:08:48;;;;;;;;;;;;;;;20.82;32.70;97185.09;10434711;28;1858;-70
2022/01/12 00:13:51;;;;;;;;;;;;;;;20.84;32.59;97188.28;10402980;28;1842;-72
2022/01/12 00:18:51;;;;;;;;;;;;;;;20.81;32.74;97189.53;10431470;28;2244;-69
2022/01/12 00:23:52;;;;;;;;;;;;;;;20.81;32.68;97197.44;10413143;28;1740;-69
2022/01/12 00:34:11;;;;;;;;;;;;;;;20.85;32.58;97189.88;10451953;22;1988;-41
2022/01/12 00:39:13;;;;;;;;;;;;;;;20.82;32.39;97185.09;10389876;28;1918;-49
2022/01/12 00:44:24;;;;;;;;;;;;;;;20.80;32.41;97187.97;10375337;28;1960;-43
2022/01/12 00:49:24;;;;;;;;;;;;;;;20.84;32.16;97183.00;10371626;28;1958;-42
2022/01/12 00:54:25;;;;;;;;;;;;;;;20.80;32.15;97187.97;10362758;28;1811;-47
2022/01/12 00:59:25;;;;;;;;;;;;;;;20.78;32.13;97184.78;10377449;28;1969;-46
2022/01/12 01:04:26;;;;;;;;;;;;;;;20.78;31.94;97190.03;10377193;28;2082;-46
2022/01/12 01:09:27;;;;;;;;;;;;;;;20.82;31.77;97190.34;10374788;28;1929;-43
2022/01/12 01:14:46;;;;;;;;;;;;;;;20.78;31.87;97200.59;10375343;28;1857;-44
2022/01/12 01:30:25;;;;;;;;;;;;;;;20.78;31.74;97191.88;10378538;28;1870;-43
2022/01/12 01:35:27;;;;;;;;;;;;;;;20.76;31.65;97184.22;10378795;28;1960;-43
2022/01/12 01:40:28;;;;;;;;;;;;;;;20.77;31.56;97175.25;10375596;28;1971;-42
2022/01/12 01:56:08;;;;;;;;;;;;;;;20.79;31.46;97175.03;10376411;28;1854;-43
2022/01/12 02:01:08;;;;;;;;;;;;;;;20.75;31.78;97173.91;10372232;28;2016;-42
2022/01/12 02:06:09;;;;;;;;;;;;;;;20.78;31.43;97178.69;10378084;28;1889;-45
2022/01/12 02:11:10;;;;;;;;;;;;;;;20.80;31.40;97176.63;10375708;28;1857;-43
2022/01/12 02:16:10;;;;;;;;;;;;;;;20.78;31.51;97168.16;10377844;28;2031;-47
2022/01/12 02:39:49;;;;;;;;;;;;;;;20.76;31.45;97202.66;10378857;28;2008;-48
2022/01/12 02:42:43;;;;;;;;;;;;;;;20.74;31.47;97204.72;10376443;28;2028;-45
2022/01/12 02:58:21;;;;;;;;;;;;;;;20.76;31.08;97205.28;10379870;28;1918;-48
2022/01/12 03:03:23;;;;;;;;;;;;;;;20.72;31.26;97206.81;10374147;28;1621;-47
2022/01/12 03:08:26;;;;;;;;;;;;;;;20.77;30.97;97214.00;10384213;28;1878;-48
2022/01/12 03:13:26;;;;;;;;;;;;;;;20.72;31.09;97219.19;10382695;28;1827;-46
2022/01/12 03:18:26;;;;;;;;;;;;;;;20.71;31.23;97218.38;10375901;28;2020;-47
2022/01/12 03:23:27;;;;;;;;;;;;;;;20.70;30.95;97218.63;10378604;28;1891;-44
2022/01/12 03:28:27;;;;;;;;;;;;;;;20.73;30.90;97232.09;10383258;28;2146;-43
2022/01/12 03:38:31;;;;;;;;;;;;;;;20.71;30.81;97234.19;10382667;28;1981;-44
2022/01/12 03:43:31;;;;;;;;;;;;;;;20.72;30.88;97235.00;10388206;28;1862;-43
2022/01/12 03:48:32;;;;;;;;;;;;;;;20.70;30.95;97239.69;10380850;28;2015;-44
2022/01/12 03:53:32;;;;;;;;;;;;;;;20.73;30.82;97242.66;10376956;28;1933;-44
2022/01/12 03:58:33;;;;;;;;;;;;;;;20.71;30.77;97257.91;10381682;28;2000;-46
2022/01/12 04:03:39;;;;;;;;;;;;;;;20.71;30.74;97236.03;10376964;28;1814;-48
2022/01/12 04:08:39;;;;;;;;;;;;;;;20.71;30.78;97242.09;10381199;28;1835;-43
2022/01/12 04:13:42;;;;;;;;;;;;;;;20.71;30.70;97251.84;10382734;28;1832;-43
2022/01/12 04:18:42;;;;;;;;;;;;;;;20.68;30.56;97253.13;10376061;28;1969;-45
2022/01/12 04:23:43;;;;;;;;;;;;;;;20.71;30.71;97247.38;10373720;28;1937;-42
2022/01/12 04:28:43;;;;;;;;;;;;;;;20.69;30.56;97248.66;10382396;28;1834;-43
2022/01/12 04:33:44;;;;;;;;;;;;;;;20.68;30.64;97253.13;10378243;28;1853;-42
2022/01/12 04:38:45;;;;;;;;;;;;;;;20.67;30.64;97262.06;10361489;28;1981;-43
2022/01/12 04:43:45;;;;;;;;;;;;;;;20.68;30.41;97258.41;10379883;28;1957;-42
2022/01/12 04:48:53;;;;;;;;;;;;;;;20.66;30.51;97252.56;10377693;28;2013;-42
2022/01/12 04:53:53;;;;;;;;;;;;;;;20.67;30.36;97248.88;10375923;28;1934;-43
2022/01/12 04:58:54;;;;;;;;;;;;;;;20.65;30.36;97252.81;10378000;28;2056;-42
2022/01/12 05:14:14;;;;;;;;;;;;;;;20.64;30.44;97265.19;10376511;28;2125;-42
2022/01/12 05:19:15;;;;;;;;;;;;;;;20.67;30.33;97272.59;10373447;28;1975;-43
2022/01/12 05:24:15;;;;;;;;;;;;;;;20.66;30.36;97276.28;10372134;28;1883;-45
2022/01/12 05:29:16;;;;;;;;;;;;;;;20.64;30.23;97283.63;10377586;28;1877;-43
2022/01/12 05:34:16;;;;;;;;;;;;;;;20.65;30.01;97289.69;10374865;28;1860;-42
2022/01/12 05:39:17;;;;;;;;;;;;;;;20.63;30.09;97289.13;10375604;28;1914;-42
2022/01/12 05:44:17;;;;;;;;;;;;;;;20.66;30.04;97297.34;10375244;28;1976;-43
2022/01/12 05:49:36;;;;;;;;;;;;;;;20.65;30.05;97311.56;10377227;28;1861;-45
2022/01/12 05:54:37;;;;;;;;;;;;;;;20.66;29.84;97297.34;10374302;28;1822;-41
2022/01/12 05:59:37;;;;;;;;;;;;;;;20.65;30.05;97298.38;10373132;28;1961;-43
2022/01/12 06:04:38;;;;;;;;;;;;;;;20.62;29.61;97311.22;10374456;28;1849;-42
2022/01/12 06:09:38;;;;;;;;;;;;;;;20.63;29.94;97313.63;10373801;28;1814;-43
2022/01/12 06:14:40;;;;;;;;;;;;;;;20.61;29.87;97305.16;10377625;28;1836;-43
2022/01/12 06:19:40;;;;;;;;;;;;;;;20.62;29.85;97312.03;10379259;28;1975;-41
2022/01/12 06:24:41;;;;;;;;;;;;;;;20.63;29.70;97326.03;10369358;28;1862;-42
2022/01/12 06:29:49;;;;;;;;;;;;;;;20.63;29.81;97339.97;10372235;28;1866;-43
2022/01/12 06:34:49;;;;;;;;;;;;;;;20.65;29.70;97337.13;10349494;28;1915;-42
2022/01/12 06:39:50;;;;;;;;;;;;;;;20.61;29.66;97339.41;10376224;28;1910;-43
2022/01/12 06:44:50;;;;;;;;;;;;;;;20.62;29.69;97369.19;10376302;28;1838;-42
2022/01/12 06:49:51;;;;;;;;;;;;;;;20.63;29.53;97371.59;10364913;28;1816;-41
2022/01/12 06:54:51;;;;;;;;;;;;;;;20.64;29.74;97383.75;10371628;28;1984;-41
2022/01/12 06:59:52;;;;;;;;;;;;;;;20.62;29.80;97396.34;10372811;28;1959;-47
2022/01/12 07:04:52;;;;;;;;;;;;;;;20.62;29.85;97380.53;10363938;28;1890;-41
2022/01/12 07:09:53;;;;;;;;;;;;;;;20.60;29.76;97385.25;10365859;28;1890;-40
2022/01/12 07:14:54;;;;;;;;;;;;;;;20.62;29.74;97398.19;10363452;28;1924;-41
2022/01/12 07:19:54;;;;;;;;;;;;;;;20.64;29.50;97404.00;10343505;28;2017;-43
2022/01/12 07:24:55;;;;;;;;;;;;;;;20.59;29.80;97412.63;10362494;28;1919;-42
2022/01/12 07:29:55;;;;;;;;;;;;;;;20.63;29.78;97412.97;10345950;28;1829;-43
2022/01/12 07:34:56;;;;;;;;;;;;;;;20.62;29.52;97425.34;10362841;28;1924;-46
2022/01/12 07:39:56;;;;;;;;;;;;;;;20.62;29.63;97430.59;10367560;28;2038;-45
2022/01/12 07:45:01;;;;;;;;;;;;;;;20.60;29.74;97439.78;10386668;28;1848;-47
2022/01/12 07:50:03;;;;;;;;;;;;;;;20.62;29.45;97449.06;10370469;28;2378;-45
2022/01/12 07:55:03;;;;;;;;;;;;;;;20.62;29.70;97449.06;10357552;28;1994;-43
2022/01/12 08:00:04;;;;;;;;;;;;;;;20.58;29.56;97461.09;10367597;28;1963;-45
2022/01/12 08:05:05;;;;;;;;;;;;;;;20.59;29.55;97446.88;10357163;28;1892;-50
2022/01/12 08:10:06;;;;;;;;;;;;;;;20.59;29.67;97456.59;10376502;28;1758;-42
2022/01/12 08:15:07;;;;;;;;;;;;;;;20.62;29.73;97459.59;10377918;28;1875;-40
2022/01/12 08:20:10;;;;;;;;;;;;;;;20.64;29.72;97465.44;10366153;28;1910;-42
2022/01/12 08:25:11;;;;;;;;;;;;;;;20.64;29.67;97465.44;10372242;28;1942;-42
2022/01/12 08:30:18;;;;;;;;;;;;;;;20.63;29.70;97474.34;10372628;28;1849;-40
2022/01/12 08:35:19;;;;;;;;;;;;;;;20.67;29.59;97466.81;10358257;28;2000;-40
2022/01/12 08:40:19;;;;;;;;;;;;;;;20.68;29.68;97463.94;10368048;28;1906;-45
2022/01/12 08:45:20;;;;;;;;;;;;;;;20.69;29.43;97462.88;10369252;28;1827;-44
2022/01/12 08:50:20;;;;;;;;;;;;;;;20.70;29.28;97461.84;10371568;28;1920;-45
2022/01/12 08:55:21;;;;;;;;;;;;;;;20.75;29.45;97475.13;10374782;28;1831;-45
2022/01/12 09:00:21;;;;;;;;;;;;;;;20.76;29.48;97471.47;10372600;28;1981;-45
2022/01/12 09:05:22;;;;;;;;;;;;;;;20.77;29.15;97477.53;10378596;28;1823;-41
2022/01/12 09:10:22;;;;;;;;;;;;;;;20.76;29.17;97475.94;10386625;28;1854;-41
2022/01/12 09:15:25;;;;;;;;;;;;;;;20.79;29.38;97484.16;10374746;28;1964;-45
2022/01/12 09:20:25;;;;;;;;;;;;;;;20.80;29.18;97480.50;10367579;28;1961;-45
2022/01/12 09:25:26;;;;;;;;;;;;;;;20.82;29.29;97482.91;10370574;28;1853;-47
2022/01/12 09:30:27;;;;;;;;;;;;;;;20.82;29.20;97488.97;10356761;28;1845;-41
2022/01/12 09:35:27;;;;;;;;;;;;;;;20.75;29.19;97487.53;10371704;28;1909;-45
2022/01/12 09:40:27;;;;;;;;;;;;;;;20.77;28.95;97477.53;10352946;28;2022;-42
2022/01/12 09:45:28;;;;;;;;;;;;;;;20.74;29.09;97489.34;10369540;28;2041;-43
2022/01/12 09:50:28;;;;;;;;;;;;;;;20.74;29.14;97499.88;10374272;28;1855;-47
2022/01/12 09:55:28;;;;;;;;;;;;;;;20.74;28.95;97480.63;10372929;28;1808;-47
2022/01/12 10:00:29;;;;;;;;;;;;;;;20.75;29.05;97488.28;10367625;28;1906;-45
2022/01/12 10:05:30;;;;;;;;;;;;;;;20.72;29.38;97486.13;10355119;28;1873;-43
2022/01/12 10:10:30;;;;;;;;;;;;;;;20.72;29.15;97475.59;10362320;28;1850;-39
2022/01/12 10:15:31;;;;;;;;;;;;;;;20.72;28.99;97475.59;10374662;28;1806;-41
2022/01/12 10:20:33;;;;;;;;;;;;;;;20.70;29.22;97487.41;10360829;28;1926;-43
2022/01/12 10:25:34;;;;;;;;;;;;;;;20.70;29.03;97472.41;10361811;28;1939;-45
2022/01/12 10:30:37;;;;;;;;;;;;;;;20.70;28.82;97461.84;10360062;28;1852;-42
2022/01/12 10:35:39;;;;;;;;;;;;;;;20.71;29.03;97466.06;10381016;28;2033;-43
2022/01/12 10:40:43;;;;;;;;;;;;;;;20.72;28.96;97472.97;10371389;28;1972;-41
2022/01/12 10:45:50;;;;;;;;;;;;;;;20.70;29.00;97451.31;10380469;28;2011;-40
2022/01/12 10:50:57;;;;;;;;;;;;;;;20.70;28.88;97468.94;10375709;28;1806;-44
2022/01/12 10:56:05;;;;;;;;;;;;;;;20.69;28.90;97483.97;10381606;28;1860;-44
2022/01/12 11:01:06;;;;;;;;;;;;;;;20.66;29.22;97465.19;10382448;28;2002;-41
2022/01/12 11:06:07;;;;;;;;;;;;;;;20.68;29.23;97469.19;10387666;28;1866;-48
2022/01/12 11:11:07;;;;;;;;;;;;;;;20.67;29.17;97466.81;10381142;28;1811;-44
2022/01/12 11:16:08;;;;;;;;;;;;;;;20.66;29.44;97473.09;10382356;28;1863;-45
2022/01/12 11:21:10;;;;;;;;;;;;;;;20.66;29.62;97460.72;10374772;28;2156;-44
2022/01/12 11:26:15;;;;;;;;;;;;;;;20.67;30.06;97466.81;10380834;28;1836;-43
2022/01/12 11:31:23;;;;;;;;;;;;;;;20.70;30.78;97467.13;10371654;28;1837;-52
2022/01/12 11:36:24;;;;;;;;;;;;;;;20.75;31.82;97461.94;10378836;28;1850;-49
2022/01/12 11:41:28;;;;;;;;;;;;;;;20.77;31.60;97446.69;10379603;28;1969;-43
2022/01/12 11:46:44;;;;;;;;;;;;;;;20.75;31.70;97448.00;10374107;28;2182;-45
2022/01/12 11:51:44;;;;;;;;;;;;;;;20.77;31.75;97435.38;10372980;28;1795;-45
2022/01/12 11:56:54;;;;;;;;;;;;;;;20.77;31.35;97449.34;10366494;28;1848;-46
2022/01/12 12:02:11;;;;;;;;;;;;;;;20.74;31.21;97446.38;10366287;28;1958;-44
2022/01/12 12:07:12;;;;;;;;;;;;;;;20.73;31.05;97450.84;10382018;28;1851;-43
2022/01/12 12:12:16;;;;;;;;;;;;;;;20.71;30.97;97452.91;10379390;28;1807;-42
2022/01/12 12:17:16;;;;;;;;;;;;;;;20.71;30.73;97467.94;10376956;28;1922;-46
2022/01/12 12:22:18;;;;;;;;;;;;;;;20.70;30.79;97482.13;10370529;28;1808;-47
2022/01/12 12:27:19;;;;;;;;;;;;;;;20.67;31.01;97491.28;10383358;28;2574;-48
2022/01/12 12:32:20;;;;;;;;;;;;;;;20.69;31.00;97485.81;10376672;28;1881;-49
2022/01/12 12:37:21;;;;;;;;;;;;;;;20.65;31.12;97490.72;10372209;28;2358;-42
2022/01/12 12:42:21;;;;;;;;;;;;;;;20.64;30.99;97498.88;10377844;28;1854;-43
2022/01/12 12:47:21;;;;;;;;;;;;;;;20.66;30.81;97488.91;10364684;28;1811;-42
2022/01/12 12:52:23;;;;;;;;;;;;;;;20.63;30.85;97490.16;10373062;28;1827;-47
2022/01/12 12:57:24;;;;;;;;;;;;;;;20.63;31.05;97492.00;10365303;28;2163;-43
2022/01/12 13:02:24;;;;;;;;;;;;;;;20.61;31.15;97484.31;10360066;28;1835;-41
2022/01/12 13:07:25;;;;;;;;;;;;;;;20.65;30.93;97458.31;10364503;28;1909;-45
2022/01/12 13:12:33;;;;;;;;;;;;;;;20.62;30.96;97459.59;10371090;28;1885;-42
2022/01/12 13:17:35;;;;;;;;;;;;;;;20.63;31.12;97470.94;10347740;28;1910;-44
2022/01/12 13:22:36;;;;;;;;;;;;;;;20.62;31.26;97462.22;10360650;28;1776;-46
2022/01/12 13:27:37;;;;;;;;;;;;;;;20.63;30.85;97453.28;10370100;28;1866;-44
2022/01/12 13:32:38;;;;;;;;;;;;;;;20.63;31.03;97434.81;10372473;28;1705;-43
2022/01/12 13:37:42;;;;;;;;;;;;;;;20.77;30.49;97451.19;10369295;28;2173;-50
2022/01/12 13:42:50;;;;;;;;;;;;;;;20.86;30.30;97439.22;10358541;28;1764;-44
2022/01/12 13:48:00;;;;;;;;;;;;;;;20.98;29.70;97440.78;10361657;28;1799;-45
2022/01/12 13:53:00;;;;;;;;;;;;;;;21.09;29.38;97433.91;10364662;28;1831;-44
2022/01/12 13:58:06;;;;;;;;;;;;;;;21.18;28.96;97445.69;10367643;28;1914;-45
2022/01/12 14:03:13;;;;;;;;;;;;;;;21.25;28.91;97442.88;10353828;28;1773;-42
2022/01/12 14:08:15;;;;;;;;;;;;;;;21.32;28.73;97440.91;10359922;28;1913;-43
2022/01/12 14:13:16;;;;;;;;;;;;;;;21.39;27.81;97452.88;10369680;28;1533;-44
2022/01/12 14:18:17;;;;;;;;;;;;;;;21.47;27.52;97457.00;10383756;28;1942;-43
2022/01/12 14:23:17;;;;;;;;;;;;;;;21.50;26.98;97457.31;10374232;28;2612;-47
2022/01/12 14:28:28;;;;;;;;;;;;;;;21.55;27.13;97454.78;10373143;28;1784;-46
2022/01/12 14:33:28;;;;;;;;;;;;;;;21.56;27.19;97455.53;10370935;28;1879;-46
2022/01/12 14:38:29;;;;;;;;;;;;;;;21.58;27.17;97458.75;10367723;28;1965;-50
2022/01/12 14:43:30;;;;;;;;;;;;;;;21.56;26.42;97468.75;10367000;28;1875;-51
2022/01/12 14:48:31;;;;;;;;;;;;;;;21.58;26.48;97485.13;10360346;28;1855;-44
2022/01/12 14:53:32;;;;;;;;;;;;;;;21.58;26.93;97487.78;10371479;28;1835;-43
2022/01/12 14:58:32;;;;;;;;;;;;;;;21.59;26.00;97494.66;10372218;28;1939;-44
2022/01/12 15:03:33;;;;;;;;;;;;;;;21.61;26.01;97488.13;10368943;28;1909;-48
2022/01/12 15:08:34;;;;;;;;;;;;;;;21.60;25.98;97493.63;10375255;28;1797;-47
2022/01/12 15:13:59;;;;;;;;;;;;;;;21.62;26.36;97502.09;10379736;28;1781;-45
2022/01/12 15:18:55;;;;;;;;;;;;;;;21.63;26.27;97507.16;10369818;28;1915;-49
2022/01/12 15:23:56;;;;;;;;;;;;;;;21.63;25.64;97509.00;10352411;28;1717;-47
2022/01/12 15:28:56;;;;;;;;;;;;;;;21.65;25.93;97517.47;10361995;28;1990;-45
2022/01/12 15:33:57;;;;;;;;;;;;;;;21.63;25.92;97523.00;10376870;28;1878;-47
2022/01/12 15:38:57;;;;;;;;;;;;;;;21.64;25.24;97531.69;10376982;28;1913;-47
2022/01/12 15:43:57;;;;;;;;;;;;;;;21.68;26.72;97538.09;10379203;28;2224;-50
2022/01/12 15:48:58;;;;;;;;;;;;;;;21.68;26.02;97525.69;10376222;28;1990;-51
2022/01/12 15:53:58;;;;;;;;;;;;;;;21.70;26.33;97530.75;10376169;28;1834;-49
2022/01/12 15:58:58;;;;;;;;;;;;;;;21.67;26.19;97528.59;10377271;28;1906;-48
2022/01/12 16:03:59;;;;;;;;;;;;;;;21.65;25.59;97531.47;10374345;28;1959;-48
2022/01/12 16:08:59;;;;;;;;;;;;;;;21.68;25.55;97532.81;10358533;28;1761;-47
2022/01/12 16:14:00;;;;;;;;;;;;;;;21.67;25.95;97531.22;10377626;28;1803;-49
2022/01/12 16:19:00;;;;;;;;;;;;;;;21.68;25.71;97532.81;10373821;28;1906;-45
2022/01/12 16:24:03;;;;;;;;;;;;;;;21.66;25.73;97535.69;10375042;28;1816;-49
2022/01/12 16:29:04;;;;;;;;;;;;;;;21.69;26.45;97534.44;10369137;28;1963;-49
2022/01/12 16:34:05;;;;;;;;;;;;;;;21.67;25.81;97518.84;10371280;28;1814;-47
2022/01/12 16:39:06;;;;;;;;;;;;;;;21.61;25.26;97517.16;10371575;28;1906;-47
2022/01/12 16:44:07;;;;;;;;;;;;;;;21.57;26.29;97516.03;10353166;28;1752;-46
2022/01/12 16:49:07;;;;;;;;;;;;;;;21.48;26.65;97516.63;10354849;28;2069;-46
2022/01/12 16:54:08;;;;;;;;;;;;;;;21.39;25.70;97512.78;10356491;28;1813;-47
2022/01/12 16:59:08;;;;;;;;;;;;;;;21.31;26.86;97518.44;10363571;28;1910;-45
2022/01/12 17:04:10;;;;;;;;;;;;;;;21.22;26.74;97522.47;10363291;28;1867;-45
2022/01/12 17:09:11;;;;;;;;;;;;;;;21.19;26.75;97533.47;10360478;28;1831;-47
2022/01/12 17:14:11;;;;;;;;;;;;;;;21.15;27.04;97537.63;10357014;28;1834;-49
2022/01/12 17:19:17;;;;;;;;;;;;;;;21.08;27.06;97521.97;10358817;28;1993;-51
2022/01/12 17:24:36;;;;;;;;;;;;;;;21.03;27.55;97543.75;10375048;28;1941;-45
2022/01/12 17:29:37;;;;;;;;;;;;;;;20.99;27.56;97545.22;10376678;28;1821;-44
2022/01/12 17:34:37;;;;;;;;;;;;;;;20.94;27.82;97553.00;10377043;28;1793;-48
2022/01/12 17:39:38;;;;;;;;;;;;;;;20.92;28.14;97551.63;10368481;28;1898;-45
2022/01/12 17:44:40;;;;;;;;;;;;;;;20.91;28.23;97557.97;10369829;28;1845;-48
2022/01/12 17:55:03;;;;;;;;;;;;;;;20.89;28.58;97560.84;10376641;28;1712;-48
2022/01/12 18:00:04;;;;;;;;;;;;;;;20.89;28.48;97571.38;10368115;28;1956;-49
2022/01/12 18:05:05;;;;;;;;;;;;;;;20.84;28.45;97573.88;10371008;28;1903;-46
2022/01/12 18:10:05;;;;;;;;;;;;;;;20.84;28.51;97573.88;10369558;28;1862;-44
2022/01/12 18:15:06;;;;;;;;;;;;;;;20.83;28.43;97577.56;10368188;28;1985;-50
2022/01/12 18:20:07;;;;;;;;;;;;;;;20.78;28.54;97577.44;10360814;28;1910;-45
2022/01/12 18:25:08;;;;;;;;;;;;;;;20.79;28.37;97570.34;10366375;28;1798;-47
2022/01/12 18:30:08;;;;;;;;;;;;;;;20.76;28.50;97582.16;10371367;28;1832;-48
2022/01/12 18:35:09;;;;;;;;;;;;;;;20.76;28.43;97582.16;10371523;28;1761;-44
2022/01/12 18:40:16;;;;;;;;;;;;;;;20.73;28.29;97593.13;10376062;28;1975;-46
2022/01/12 18:45:17;;;;;;;;;;;;;;;20.71;28.16;97597.84;10372361;28;1814;-45
2022/01/12 18:50:17;;;;;;;;;;;;;;;20.71;28.40;97610.25;10372314;28;1958;-49
2022/01/12 18:55:17;;;;;;;;;;;;;;;20.69;28.17;97610.44;10378098;28;1890;-46
2022/01/12 19:00:18;;;;;;;;;;;;;;;20.70;28.36;97617.34;10377912;28;1969;-44
2022/01/12 19:05:18;;;;;;;;;;;;;;;20.74;29.75;97621.13;10367301;28;1913;-44
2022/01/12 19:10:19;;;;;;;;;;;;;;;20.73;30.80;97622.13;10378349;28;1862;-44
2022/01/12 19:15:19;;;;;;;;;;;;;;;20.79;31.66;97630.97;10370460;28;1854;-43
2022/01/12 19:20:19;;;;;;;;;;;;;;;20.79;32.17;97612.53;10369554;28;1906;-50
2022/01/12 19:25:21;;;;;;;;;;;;;;;20.79;32.02;97621.22;10367739;28;1874;-48
2022/01/12 19:30:21;;;;;;;;;;;;;;;20.83;32.21;97617.13;10363539;28;1776;-43
2022/01/12 19:35:21;;;;;;;;;;;;;;;20.81;32.23;97619.16;10363906;28;1839;-48
2022/01/12 19:40:22;;;;;;;;;;;;;;;20.82;32.47;97625.22;10369581;28;1902;-46
2022/01/12 19:45:22;;;;;;;;;;;;;;;20.84;32.07;97623.97;10379413;28;1859;-48
2022/01/12 19:50:29;;;;;;;;;;;;;;;20.82;31.75;97633.13;10371475;28;1813;-47
2022/01/12 19:55:31;;;;;;;;;;;;;;;20.79;31.86;97634.38;10374069;28;1839;-45
2022/01/12 20:00:34;;;;;;;;;;;;;;;20.83;32.70;97632.13;10364114;28;1954;-44
2022/01/12 20:05:35;;;;;;;;;;;;;;;20.82;32.77;97622.59;10365154;28;1891;-46
2022/01/12 20:10:35;;;;;;;;;;;;;;;20.81;32.98;97610.47;10367805;28;1860;-49
2022/01/12 20:15:36;;;;;;;;;;;;;;;20.80;33.20;97617.56;10381098;28;1815;-47
2022/01/12 20:25:56;;;;;;;;;;;;;;;20.80;32.74;97625.47;10375015;28;1862;-49
2022/01/12 20:30:56;;;;;;;;;;;;;;;20.81;32.21;97631.53;10374949;28;1773;-47
2022/01/12 20:35:56;;;;;;;;;;;;;;;20.78;32.67;97630.16;10365152;28;1871;-47
2022/01/12 20:40:57;;;;;;;;;;;;;;;20.75;32.67;97621.94;10369940;28;1965;-47
2022/01/12 20:45:57;;;;;;;;;;;;;;;20.76;32.60;97624.31;10362526;28;1839;-46
2022/01/12 20:50:58;;;;;;;;;;;;;;;20.72;32.79;97641.63;10365251;28;1848;-46
2022/01/12 20:55:58;;;;;;;;;;;;;;;20.69;32.98;97642.06;10369318;28;1900;-45
2022/01/12 21:00:58;;;;;;;;;;;;;;;20.68;32.87;97648.38;10366441;28;1972;-48
2022/01/12 21:05:59;;;;;;;;;;;;;;;20.69;33.03;97655.25;10373973;28;1838;-48
2022/01/12 21:10:59;;;;;;;;;;;;;;;20.68;32.87;97658.13;10367060;28;1836;-41
2022/01/12 21:16:00;;;;;;;;;;;;;;;20.66;32.77;97653.09;10375802;28;1862;-43
2022/01/12 21:21:00;;;;;;;;;;;;;;;20.65;32.68;97645.41;10372882;28;1911;-47
2022/01/12 21:26:01;;;;;;;;;;;;;;;20.62;32.77;97643.22;10372747;28;1811;-44
2022/01/12 21:31:02;;;;;;;;;;;;;;;20.61;32.52;97639.78;10367308;28;1819;-48
2022/01/12 21:36:05;;;;;;;;;;;;;;;20.60;32.30;97635.56;10368123;28;1819;-47
2022/01/12 21:41:18;;;;;;;;;;;;;;;20.57;32.47;97643.09;10374926;28;1910;-49
2022/01/12 21:46:19;;;;;;;;;;;;;;;20.58;32.18;97642.06;10374445;28;1887;-45
2022/01/12 21:51:20;;;;;;;;;;;;;;;20.57;31.96;97636.00;10370731;28;1936;-43
2022/01/12 21:56:20;;;;;;;;;;;;;;;20.54;32.05;97640.91;10423161;22;1985;-58
2022/01/12 22:01:23;;;;;;;;;;;;;;;20.54;31.89;97651.47;10431100;28;1914;-58
2022/01/12 22:06:23;;;;;;;;;;;;;;;20.53;31.76;97645.38;10435915;28;1806;-57
2022/01/12 22:11:24;;;;;;;;;;;;;;;20.54;31.71;97647.00;10435372;28;1888;-56
2022/01/12 22:16:24;;;;;;;;;;;;;;;20.54;31.61;97640.91;10431527;28;1980;-57
2022/01/12 22:21:25;;;;;;;;;;;;;;;20.54;31.32;97640.91;10434438;28;1967;-57
2022/01/12 22:26:25;;;;;;;;;;;;;;;20.51;31.38;97644.81;10435585;28;1922;-59
2022/01/12 22:31:26;;;;;;;;;;;;;;;20.50;31.28;97645.84;10439549;28;1869;-59
2022/01/12 22:36:26;;;;;;;;;;;;;;;20.46;31.17;97652.59;10438695;28;1790;-56
2022/01/12 22:41:27;;;;;;;;;;;;;;;20.46;31.05;97655.25;10438496;28;1926;-58
2022/01/12 22:46:27;;;;;;;;;;;;;;;20.47;31.09;97646.28;10439174;28;1842;-58
2022/01/12 22:51:27;;;;;;;;;;;;;;;20.48;31.08;97631.28;10431499;28;1890;-57
2022/01/12 22:56:34;;;;;;;;;;;;;;;20.46;31.01;97643.91;10437430;28;1841;-58
2022/01/12 23:01:35;;;;;;;;;;;;;;;20.45;30.78;97635.19;10434581;28;1905;-59
2022/01/12 23:06:35;;;;;;;;;;;;;;;20.43;30.85;97645.16;10436379;28;1807;-58
2022/01/12 23:11:36;;;;;;;;;;;;;;;20.46;30.62;97646.53;10437764;28;1783;-59
2022/01/12 23:16:36;;;;;;;;;;;;;;;20.48;30.81;97642.66;10430219;28;1867;-59
2022/01/12 23:21:36;;;;;;;;;;;;;;;20.47;30.81;97645.47;10438544;28;1898;-55
2022/01/12 23:26:37;;;;;;;;;;;;;;;20.46;30.75;97649.97;10444005;28;1830;-58
2022/01/12 23:31:38;;;;;;;;;;;;;;;20.46;30.78;97655.25;10434449;28;1899;-58
2022/01/12 23:42:32;;;;;;;;;;;;;;;20.44;30.67;97667.84;10443548;28;1906;-57
2022/01/12 23:57:58;;;;;;;;;;;;;;;20.40;30.66;97679.84;10436844;28;2100;-57
